sensor_id;sensor_type;location;lat;lon;timestamp;temperature;humidity
12849;DHT22;6493;50.928;7.172;2023-04-06T00:00:27;1.20;37.80
12849;DHT22;6493;50.928;7.172;2023-04-06T00:05:52;1.10;38.00
12849;DHT22;6493;50.928;7.172;2023-04-06T00:11:15;1.10;38.10
12849;DHT22;6493;50.928;7.172;2023-04-06T00:16:39;1.00;38.00
12849;DHT22;6493;50.928;7.172;2023-04-06T00:22:04;1.00;38.10
12849;DHT22;6493;50.928;7.172;2023-04-06T00:27:28;1.00;38.10
12849;DHT22;6493;50.928;7.172;2023-04-06T00:32:51;0.90;38.40
12849;DHT22;6493;50.928;7.172;2023-04-06T00:38:16;0.90;38.20
12849;DHT22;6493;50.928;7.172;2023-04-06T00:43:40;0.90;38.30
12849;DHT22;6493;50.928;7.172;2023-04-06T00:49:03;0.80;38.40
12849;DHT22;6493;50.928;7.172;2023-04-06T00:54:29;0.70;38.20
12849;DHT22;6493;50.928;7.172;2023-04-06T00:59:54;0.70;38.40
12849;DHT22;6493;50.928;7.172;2023-04-06T02:52:23;0.00;39.00
12849;DHT22;6493;50.928;7.172;2023-04-06T02:57:47;-0.10;38.90
12849;DHT22;6493;50.928;7.172;2023-04-06T03:03:12;-0.10;38.90
12849;DHT22;6493;50.928;7.172;2023-04-06T03:08:39;-0.10;38.90
12849;DHT22;6493;50.928;7.172;2023-04-06T03:14:02;-0.20;39.10
12849;DHT22;6493;50.928;7.172;2023-04-06T03:19:26;-0.30;38.90
12849;DHT22;6493;50.928;7.172;2023-04-06T03:24:55;-0.30;39.00
12849;DHT22;6493;50.928;7.172;2023-04-06T03:30:19;-0.30;39.10
12849;DHT22;6493;50.928;7.172;2023-04-06T03:35:43;-0.40;39.40
12849;DHT22;6493;50.928;7.172;2023-04-06T03:41:09;-0.40;39.20
12849;DHT22;6493;50.928;7.172;2023-04-06T03:46:34;-0.50;39.20
12849;DHT22;6493;50.928;7.172;2023-04-06T03:51:58;-0.50;39.50
12849;DHT22;6493;50.928;7.172;2023-04-06T03:57:25;-0.60;39.30
12849;DHT22;6493;50.928;7.172;2023-04-06T04:02:49;-0.70;39.30
12849;DHT22;6493;50.928;7.172;2023-04-06T04:08:13;-0.70;39.40
12849;DHT22;6493;50.928;7.172;2023-04-06T04:13:37;-0.80;39.40
12849;DHT22;6493;50.928;7.172;2023-04-06T04:19:03;-0.80;39.50
12849;DHT22;6493;50.928;7.172;2023-04-06T04:24:26;-0.80;39.50
12849;DHT22;6493;50.928;7.172;2023-04-06T04:29:51;-0.90;39.40
12849;DHT22;6493;50.928;7.172;2023-04-06T04:35:15;-0.90;39.50
12849;DHT22;6493;50.928;7.172;2023-04-06T04:40:39;-1.00;39.50
12849;DHT22;6493;50.928;7.172;2023-04-06T04:46:06;-1.00;39.50
12849;DHT22;6493;50.928;7.172;2023-04-06T04:51:34;-1.00;39.70
12849;DHT22;6493;50.928;7.172;2023-04-06T04:57:05;-1.10;39.60
12849;DHT22;6493;50.928;7.172;2023-04-06T05:02:38;-1.10;39.70
12849;DHT22;6493;50.928;7.172;2023-04-06T05:08:22;-1.10;39.70
12849;DHT22;6493;50.928;7.172;2023-04-06T05:13:46;-1.10;39.80
12849;DHT22;6493;50.928;7.172;2023-04-06T05:19:15;-1.00;39.90
12849;DHT22;6493;50.928;7.172;2023-04-06T05:24:40;-1.00;40.00
12849;DHT22;6493;50.928;7.172;2023-04-06T05:30:06;-0.90;40.30
12849;DHT22;6493;50.928;7.172;2023-04-06T05:35:37;-0.80;40.40
12849;DHT22;6493;50.928;7.172;2023-04-06T05:41:05;-0.60;40.80
12849;DHT22;6493;50.928;7.172;2023-04-06T05:46:28;-0.20;41.20
12849;DHT22;6493;50.928;7.172;2023-04-06T05:51:56;0.20;41.30
12849;DHT22;6493;50.928;7.172;2023-04-06T05:57:19;0.60;41.30
12849;DHT22;6493;50.928;7.172;2023-04-06T06:02:44;0.80;41.20
12849;DHT22;6493;50.928;7.172;2023-04-06T06:08:15;0.90;41.10
12849;DHT22;6493;50.928;7.172;2023-04-06T06:13:41;1.00;40.90
12849;DHT22;6493;50.928;7.172;2023-04-06T06:19:05;1.10;41.10
12849;DHT22;6493;50.928;7.172;2023-04-06T06:24:31;1.30;41.30
12849;DHT22;6493;50.928;7.172;2023-04-06T06:29:55;1.50;41.30
12849;DHT22;6493;50.928;7.172;2023-04-06T06:35:20;1.80;41.60
12849;DHT22;6493;50.928;7.172;2023-04-06T06:40:45;2.10;41.70
12849;DHT22;6493;50.928;7.172;2023-04-06T06:46:10;2.40;41.50
12849;DHT22;6493;50.928;7.172;2023-04-06T06:51:35;2.60;41.40
12849;DHT22;6493;50.928;7.172;2023-04-06T06:57:00;2.90;41.20
12849;DHT22;6493;50.928;7.172;2023-04-06T07:02:24;3.10;41.30
12849;DHT22;6493;50.928;7.172;2023-04-06T07:07:47;3.50;41.60
12849;DHT22;6493;50.928;7.172;2023-04-06T07:13:12;3.80;40.50
12849;DHT22;6493;50.928;7.172;2023-04-06T07:18:40;4.30;40.80
12849;DHT22;6493;50.928;7.172;2023-04-06T07:24:04;4.80;41.00
12849;DHT22;6493;50.928;7.172;2023-04-06T07:29:29;5.30;40.70
12849;DHT22;6493;50.928;7.172;2023-04-06T07:34:53;5.70;40.10
12849;DHT22;6493;50.928;7.172;2023-04-06T07:40:17;6.00;39.80
12849;DHT22;6493;50.928;7.172;2023-04-06T07:45:43;6.20;39.40
12849;DHT22;6493;50.928;7.172;2023-04-06T07:51:10;6.50;39.50
12849;DHT22;6493;50.928;7.172;2023-04-06T07:56:37;6.90;40.30
12849;DHT22;6493;50.928;7.172;2023-04-06T08:02:02;7.50;40.30
12849;DHT22;6493;50.928;7.172;2023-04-06T08:07:26;8.00;39.70
12849;DHT22;6493;50.928;7.172;2023-04-06T08:12:49;8.40;38.40
12849;DHT22;6493;50.928;7.172;2023-04-06T08:18:14;8.60;38.10
12849;DHT22;6493;50.928;7.172;2023-04-06T08:23:37;8.60;37.30
12849;DHT22;6493;50.928;7.172;2023-04-06T08:29:01;8.80;37.70
12849;DHT22;6493;50.928;7.172;2023-04-06T08:34:27;8.70;37.80
12849;DHT22;6493;50.928;7.172;2023-04-06T08:39:50;8.70;37.70
12849;DHT22;6493;50.928;7.172;2023-04-06T08:45:16;8.70;37.90
12849;DHT22;6493;50.928;7.172;2023-04-06T08:50:41;8.70;38.60
12849;DHT22;6493;50.928;7.172;2023-04-06T08:56:05;8.80;38.40
12849;DHT22;6493;50.928;7.172;2023-04-06T09:01:31;8.90;38.60
12849;DHT22;6493;50.928;7.172;2023-04-06T09:06:58;9.20;38.60
12849;DHT22;6493;50.928;7.172;2023-04-06T09:12:23;9.40;38.10
12849;DHT22;6493;50.928;7.172;2023-04-06T09:17:47;9.40;37.80
12849;DHT22;6493;50.928;7.172;2023-04-06T09:23:19;9.30;37.30
12849;DHT22;6493;50.928;7.172;2023-04-06T09:28:44;9.30;38.00
12849;DHT22;6493;50.928;7.172;2023-04-06T09:34:07;9.50;38.50
12849;DHT22;6493;50.928;7.172;2023-04-06T09:39:33;9.60;37.70
12849;DHT22;6493;50.928;7.172;2023-04-06T09:44:56;9.70;37.70
12849;DHT22;6493;50.928;7.172;2023-04-06T09:50:20;9.80;37.90
12849;DHT22;6493;50.928;7.172;2023-04-06T09:55:46;10.00;38.10
12849;DHT22;6493;50.928;7.172;2023-04-06T10:01:15;10.20;38.00
12849;DHT22;6493;50.928;7.172;2023-04-06T10:06:41;10.30;37.60
12849;DHT22;6493;50.928;7.172;2023-04-06T10:12:06;10.30;37.80
12849;DHT22;6493;50.928;7.172;2023-04-06T10:17:30;10.40;37.50
12849;DHT22;6493;50.928;7.172;2023-04-06T10:22:57;10.50;37.50
12849;DHT22;6493;50.928;7.172;2023-04-06T10:28:24;10.70;37.70
12849;DHT22;6493;50.928;7.172;2023-04-06T10:33:53;10.90;38.00
12849;DHT22;6493;50.928;7.172;2023-04-06T10:39:24;11.10;38.10
12849;DHT22;6493;50.928;7.172;2023-04-06T10:44:50;11.30;38.20
12849;DHT22;6493;50.928;7.172;2023-04-06T10:50:15;11.60;38.40
12849;DHT22;6493;50.928;7.172;2023-04-06T10:55:39;11.80;38.10
12849;DHT22;6493;50.928;7.172;2023-04-06T11:01:05;12.00;37.90
12849;DHT22;6493;50.928;7.172;2023-04-06T11:06:30;12.10;37.80
12849;DHT22;6493;50.928;7.172;2023-04-06T11:11:55;12.20;37.20
12849;DHT22;6493;50.928;7.172;2023-04-06T11:17:26;12.30;37.60
12849;DHT22;6493;50.928;7.172;2023-04-06T11:22:50;12.50;37.10
12849;DHT22;6493;50.928;7.172;2023-04-06T11:28:14;12.50;37.50
12849;DHT22;6493;50.928;7.172;2023-04-06T11:33:39;12.60;36.70
12849;DHT22;6493;50.928;7.172;2023-04-06T11:39:03;12.50;36.90
12849;DHT22;6493;50.928;7.172;2023-04-06T11:44:32;12.50;36.50
12849;DHT22;6493;50.928;7.172;2023-04-06T11:50:05;12.40;36.60
12849;DHT22;6493;50.928;7.172;2023-04-06T11:55:29;12.40;36.40
12849;DHT22;6493;50.928;7.172;2023-04-06T12:01:03;12.40;35.30
12849;DHT22;6493;50.928;7.172;2023-04-06T12:06:28;12.20;36.10
12849;DHT22;6493;50.928;7.172;2023-04-06T12:11:52;12.20;36.10
12849;DHT22;6493;50.928;7.172;2023-04-06T12:17:15;12.10;35.90
12849;DHT22;6493;50.928;7.172;2023-04-06T12:22:40;12.00;36.20
12849;DHT22;6493;50.928;7.172;2023-04-06T12:28:03;12.00;36.20
12849;DHT22;6493;50.928;7.172;2023-04-06T12:33:27;12.00;36.60
12849;DHT22;6493;50.928;7.172;2023-04-06T12:38:52;11.90;36.20
12849;DHT22;6493;50.928;7.172;2023-04-06T12:44:16;11.80;35.70
12849;DHT22;6493;50.928;7.172;2023-04-06T12:49:39;11.70;36.30
12849;DHT22;6493;50.928;7.172;2023-04-06T12:55:05;11.60;36.00
12849;DHT22;6493;50.928;7.172;2023-04-06T13:00:29;11.60;36.30
12849;DHT22;6493;50.928;7.172;2023-04-06T13:05:54;11.60;36.30
12849;DHT22;6493;50.928;7.172;2023-04-06T13:11:18;11.50;36.30
12849;DHT22;6493;50.928;7.172;2023-04-06T13:16:46;11.50;36.50
12849;DHT22;6493;50.928;7.172;2023-04-06T13:22:10;11.50;36.30
12849;DHT22;6493;50.928;7.172;2023-04-06T13:27:35;11.50;36.50
12849;DHT22;6493;50.928;7.172;2023-04-06T13:32:59;11.60;36.60
12849;DHT22;6493;50.928;7.172;2023-04-06T13:38:23;11.60;36.60
12849;DHT22;6493;50.928;7.172;2023-04-06T13:43:48;11.50;36.20
12849;DHT22;6493;50.928;7.172;2023-04-06T13:49:12;11.50;36.10
12849;DHT22;6493;50.928;7.172;2023-04-06T13:54:35;11.40;36.40
12849;DHT22;6493;50.928;7.172;2023-04-06T14:00:00;11.40;36.50
12849;DHT22;6493;50.928;7.172;2023-04-06T14:05:31;11.20;36.30
12849;DHT22;6493;50.928;7.172;2023-04-06T14:10:54;11.10;36.40
12849;DHT22;6493;50.928;7.172;2023-04-06T14:16:21;11.00;36.40
12849;DHT22;6493;50.928;7.172;2023-04-06T14:21:45;10.90;36.50
12849;DHT22;6493;50.928;7.172;2023-04-06T14:27:08;10.70;36.40
12849;DHT22;6493;50.928;7.172;2023-04-06T14:32:33;10.50;36.90
12849;DHT22;6493;50.928;7.172;2023-04-06T14:37:57;10.20;37.30
12849;DHT22;6493;50.928;7.172;2023-04-06T14:43:21;9.90;37.10
12849;DHT22;6493;50.928;7.172;2023-04-06T14:48:47;9.70;37.70
12849;DHT22;6493;50.928;7.172;2023-04-06T14:54:10;9.60;37.70
12849;DHT22;6493;50.928;7.172;2023-04-06T14:59:33;9.50;38.00
12849;DHT22;6493;50.928;7.172;2023-04-06T15:05:02;9.30;37.70
12849;DHT22;6493;50.928;7.172;2023-04-06T15:10:27;9.20;38.90
12849;DHT22;6493;50.928;7.172;2023-04-06T15:15:50;9.10;39.50
12849;DHT22;6493;50.928;7.172;2023-04-06T15:21:15;9.00;39.10
12849;DHT22;6493;50.928;7.172;2023-04-06T15:26:41;8.90;38.90
12849;DHT22;6493;50.928;7.172;2023-04-06T15:32:05;8.80;39.10
12849;DHT22;6493;50.928;7.172;2023-04-06T15:37:30;8.70;40.10
12849;DHT22;6493;50.928;7.172;2023-04-06T15:42:53;8.60;39.40
12849;DHT22;6493;50.928;7.172;2023-04-06T15:48:17;8.50;40.40
12849;DHT22;6493;50.928;7.172;2023-04-06T15:53:42;8.50;40.40
12849;DHT22;6493;50.928;7.172;2023-04-06T15:59:05;8.40;40.70
12849;DHT22;6493;50.928;7.172;2023-04-06T16:04:28;8.30;40.60
12849;DHT22;6493;50.928;7.172;2023-04-06T16:09:53;8.20;40.90
12849;DHT22;6493;50.928;7.172;2023-04-06T16:15:17;8.10;41.00
12849;DHT22;6493;50.928;7.172;2023-04-06T16:20:40;8.00;41.50
12849;DHT22;6493;50.928;7.172;2023-04-06T16:26:11;7.90;41.80
12849;DHT22;6493;50.928;7.172;2023-04-06T16:31:35;7.80;44.20
12849;DHT22;6493;50.928;7.172;2023-04-06T16:36:58;7.60;43.80
12849;DHT22;6493;50.928;7.172;2023-04-06T16:42:24;7.50;44.00
12849;DHT22;6493;50.928;7.172;2023-04-06T16:47:48;7.30;43.30
12849;DHT22;6493;50.928;7.172;2023-04-06T16:53:12;7.20;45.10
12849;DHT22;6493;50.928;7.172;2023-04-06T16:58:37;7.10;44.80
12849;DHT22;6493;50.928;7.172;2023-04-06T17:04:00;7.00;45.50
12849;DHT22;6493;50.928;7.172;2023-04-06T17:09:24;6.80;45.40
12849;DHT22;6493;50.928;7.172;2023-04-06T17:14:49;6.70;46.80
12849;DHT22;6493;50.928;7.172;2023-04-06T17:20:12;6.60;48.20
12849;DHT22;6493;50.928;7.172;2023-04-06T17:25:36;6.50;48.50
12849;DHT22;6493;50.928;7.172;2023-04-06T17:31:01;6.30;48.00
12849;DHT22;6493;50.928;7.172;2023-04-06T17:36:25;6.30;49.90
12849;DHT22;6493;50.928;7.172;2023-04-06T17:41:49;6.20;48.60
12849;DHT22;6493;50.928;7.172;2023-04-06T17:47:14;6.10;48.60
12849;DHT22;6493;50.928;7.172;2023-04-06T17:52:40;6.10;49.50
12849;DHT22;6493;50.928;7.172;2023-04-06T17:58:04;6.00;50.20
12849;DHT22;6493;50.928;7.172;2023-04-06T18:03:28;5.90;53.30
12849;DHT22;6493;50.928;7.172;2023-04-06T18:08:52;5.80;51.60
12849;DHT22;6493;50.928;7.172;2023-04-06T18:14:16;5.60;52.90
12849;DHT22;6493;50.928;7.172;2023-04-06T18:19:41;5.50;53.20
12849;DHT22;6493;50.928;7.172;2023-04-06T18:25:05;5.40;53.70
12849;DHT22;6493;50.928;7.172;2023-04-06T18:30:29;5.30;53.30
12849;DHT22;6493;50.928;7.172;2023-04-06T18:35:54;5.20;54.60
12849;DHT22;6493;50.928;7.172;2023-04-06T18:41:17;5.10;54.50
12849;DHT22;6493;50.928;7.172;2023-04-06T18:46:43;5.00;54.80
12849;DHT22;6493;50.928;7.172;2023-04-06T18:52:08;4.90;53.80
12849;DHT22;6493;50.928;7.172;2023-04-06T18:57:32;4.90;54.50
12849;DHT22;6493;50.928;7.172;2023-04-06T19:02:55;4.90;54.30
12849;DHT22;6493;50.928;7.172;2023-04-06T19:08:20;4.90;54.60
12849;DHT22;6493;50.928;7.172;2023-04-06T19:13:44;4.90;55.40
12849;DHT22;6493;50.928;7.172;2023-04-06T19:19:11;4.80;55.20
12849;DHT22;6493;50.928;7.172;2023-04-06T19:24:35;4.80;55.10
12849;DHT22;6493;50.928;7.172;2023-04-06T19:29:59;4.70;55.50
12849;DHT22;6493;50.928;7.172;2023-04-06T19:35:24;4.70;55.50
12849;DHT22;6493;50.928;7.172;2023-04-06T19:40:49;4.70;56.70
12849;DHT22;6493;50.928;7.172;2023-04-06T19:46:12;4.70;56.60
12849;DHT22;6493;50.928;7.172;2023-04-06T19:51:36;4.70;56.80
12849;DHT22;6493;50.928;7.172;2023-04-06T19:57:01;4.60;57.50
12849;DHT22;6493;50.928;7.172;2023-04-06T20:02:25;4.60;58.40
12849;DHT22;6493;50.928;7.172;2023-04-06T20:07:48;4.50;57.70
12849;DHT22;6493;50.928;7.172;2023-04-06T20:13:13;4.50;58.60
12849;DHT22;6493;50.928;7.172;2023-04-06T20:18:36;4.50;57.70
12849;DHT22;6493;50.928;7.172;2023-04-06T20:24:00;4.40;57.20
12849;DHT22;6493;50.928;7.172;2023-04-06T20:29:25;4.40;58.20
12849;DHT22;6493;50.928;7.172;2023-04-06T20:34:50;4.40;59.90
12849;DHT22;6493;50.928;7.172;2023-04-06T20:39:54;4.40;58.20
12849;DHT22;6493;50.928;7.172;2023-04-06T20:44:58;4.40;58.30
12849;DHT22;6493;50.928;7.172;2023-04-06T20:50:02;4.40;59.10
12849;DHT22;6493;50.928;7.172;2023-04-06T20:55:06;4.40;60.10
12849;DHT22;6493;50.928;7.172;2023-04-06T21:00:11;4.40;59.00
12849;DHT22;6493;50.928;7.172;2023-04-06T21:05:15;4.40;59.00
12849;DHT22;6493;50.928;7.172;2023-04-06T21:10:18;4.40;60.10
12849;DHT22;6493;50.928;7.172;2023-04-06T21:15:23;4.40;59.80
12849;DHT22;6493;50.928;7.172;2023-04-06T21:20:27;4.40;59.40
12849;DHT22;6493;50.928;7.172;2023-04-06T21:25:35;4.40;59.10
12849;DHT22;6493;50.928;7.172;2023-04-06T21:30:39;4.40;59.60
12849;DHT22;6493;50.928;7.172;2023-04-06T21:35:44;4.40;59.20
12849;DHT22;6493;50.928;7.172;2023-04-06T21:40:53;4.40;59.00
12849;DHT22;6493;50.928;7.172;2023-04-06T21:45:58;4.50;59.60
12849;DHT22;6493;50.928;7.172;2023-04-06T21:51:06;4.50;59.70
12849;DHT22;6493;50.928;7.172;2023-04-06T21:56:25;4.40;59.60
12849;DHT22;6493;50.928;7.172;2023-04-06T22:01:30;4.50;61.70
12849;DHT22;6493;50.928;7.172;2023-04-06T22:06:33;4.50;59.90
12849;DHT22;6493;50.928;7.172;2023-04-06T22:11:39;4.50;59.60
12849;DHT22;6493;50.928;7.172;2023-04-06T22:16:45;4.50;59.30
12849;DHT22;6493;50.928;7.172;2023-04-06T22:21:48;4.50;60.30
12849;DHT22;6493;50.928;7.172;2023-04-06T22:26:52;4.50;60.60
12849;DHT22;6493;50.928;7.172;2023-04-06T22:31:56;4.50;59.10
12849;DHT22;6493;50.928;7.172;2023-04-06T22:36:59;4.50;59.20
12849;DHT22;6493;50.928;7.172;2023-04-06T22:42:03;4.50;58.50
12849;DHT22;6493;50.928;7.172;2023-04-06T22:47:07;4.60;58.90
12849;DHT22;6493;50.928;7.172;2023-04-06T22:52:11;4.60;59.00
12849;DHT22;6493;50.928;7.172;2023-04-06T22:57:14;4.60;59.20
12849;DHT22;6493;50.928;7.172;2023-04-06T23:02:18;4.60;58.80
12849;DHT22;6493;50.928;7.172;2023-04-06T23:07:22;4.60;58.80
12849;DHT22;6493;50.928;7.172;2023-04-06T23:12:25;4.70;59.40
12849;DHT22;6493;50.928;7.172;2023-04-06T23:17:29;4.70;58.80
12849;DHT22;6493;50.928;7.172;2023-04-06T23:22:32;4.70;58.90
12849;DHT22;6493;50.928;7.172;2023-04-06T23:27:36;4.70;58.50
12849;DHT22;6493;50.928;7.172;2023-04-06T23:32:40;4.70;59.00
12849;DHT22;6493;50.928;7.172;2023-04-06T23:37:43;4.70;59.00
12849;DHT22;6493;50.928;7.172;2023-04-06T23:42:46;4.70;58.20
12849;DHT22;6493;50.928;7.172;2023-04-06T23:47:51;4.70;58.80
12849;DHT22;6493;50.928;7.172;2023-04-06T23:52:54;4.70;58.40
12849;DHT22;6493;50.928;7.172;2023-04-06T23:57:57;4.70;58.30
